sensor_id;sensor_type;location;lat;lon;timestamp;pressure;altitude;pressure_sealevel;temperature;humidity
60373;BME280;46216;52.220;5.134;2023-03-01T00:01:13;103430.41;;;-0.06;100.00
60373;BME280;46216;52.220;5.134;2023-03-01T00:03:39;103432.13;;;-0.08;100.00
60373;BME280;46216;52.220;5.134;2023-03-01T00:06:05;103431.19;;;-0.11;100.00
60373;BME280;46216;52.220;5.134;2023-03-01T00:08:31;103431.19;;;-0.13;100.00
60373;BME280;46216;52.220;5.134;2023-03-01T00:11:05;103427.59;;;-0.18;100.00
60373;BME280;46216;52.220;5.134;2023-03-01T00:13:31;103425.75;;;-0.25;100.00
60373;BME280;46216;52.220;5.134;2023-03-01T00:15:56;103434.41;;;-0.32;100.00
60373;BME280;46216;52.220;5.134;2023-03-01T00:18:22;103428.25;;;-0.34;100.00
60373;BME280;46216;52.220;5.134;2023-03-01T00:20:51;103423.81;;;-0.40;100.00
60373;BME280;46216;52.220;5.134;2023-03-01T00:23:17;103429.94;;;-0.39;100.00
60373;BME280;46216;52.220;5.134;2023-03-01T00:25:43;103429.03;;;-0.41;100.00
60373;BME280;46216;52.220;5.134;2023-03-01T00:28:08;103425.53;;;-0.42;100.00
60373;BME280;46216;52.220;5.134;2023-03-01T00:30:33;103428.19;;;-0.40;100.00
60373;BME280;46216;52.220;5.134;2023-03-01T00:32:59;103422.03;;;-0.41;100.00
60373;BME280;46216;52.220;5.134;2023-03-01T00:35:24;103415.09;;;-0.40;100.00
60373;BME280;46216;52.220;5.134;2023-03-01T00:37:49;103412.47;;;-0.40;100.00
60373;BME280;46216;52.220;5.134;2023-03-01T00:40:27;103409.84;;;-0.40;100.00
60373;BME280;46216;52.220;5.134;2023-03-01T00:42:53;103413.34;;;-0.40;100.00
60373;BME280;46216;52.220;5.134;2023-03-01T00:45:18;103414.22;;;-0.38;100.00
60373;BME280;46216;52.220;5.134;2023-03-01T00:47:44;103410.72;;;-0.38;100.00
60373;BME280;46216;52.220;5.134;2023-03-01T00:50:11;103415.97;;;-0.38;100.00
60373;BME280;46216;52.220;5.134;2023-03-01T00:52:37;103403.75;;;-0.38;100.00
60373;BME280;46216;52.220;5.134;2023-03-01T00:55:03;103403.75;;;-0.38;100.00
60373;BME280;46216;52.220;5.134;2023-03-01T00:57:29;103403.72;;;-0.39;100.00
60373;BME280;46216;52.220;5.134;2023-03-01T00:59:54;103408.09;;;-0.38;100.00
60373;BME280;46216;52.220;5.134;2023-03-01T01:02:20;103415.13;;;-0.37;100.00
60373;BME280;46216;52.220;5.134;2023-03-01T01:04:46;103411.63;;;-0.36;100.00
60373;BME280;46216;52.220;5.134;2023-03-01T01:07:12;103404.66;;;-0.34;100.00
60373;BME280;46216;52.220;5.134;2023-03-01T01:09:38;103406.41;;;-0.35;100.00
60373;BME280;46216;52.220;5.134;2023-03-01T01:12:04;103406.44;;;-0.32;100.00
60373;BME280;46216;52.220;5.134;2023-03-01T01:14:29;103396.84;;;-0.33;100.00
60373;BME280;46216;52.220;5.134;2023-03-01T01:16:55;103394.22;;;-0.33;100.00
60373;BME280;46216;52.220;5.134;2023-03-01T01:19:22;103388.09;;;-0.33;100.00
60373;BME280;46216;52.220;5.134;2023-03-01T01:21:47;103387.22;;;-0.32;100.00
60373;BME280;46216;52.220;5.134;2023-03-01T01:24:14;103388.09;;;-0.32;100.00
60373;BME280;46216;52.220;5.134;2023-03-01T01:26:40;103387.22;;;-0.32;100.00
60373;BME280;46216;52.220;5.134;2023-03-01T01:29:06;103389.81;;;-0.35;100.00
60373;BME280;46216;52.220;5.134;2023-03-01T01:31:33;103377.59;;;-0.36;100.00
60373;BME280;46216;52.220;5.134;2023-03-01T01:33:59;103375.78;;;-0.40;100.00
60373;BME280;46216;52.220;5.134;2023-03-01T01:36:25;103373.13;;;-0.43;100.00
60373;BME280;46216;52.220;5.134;2023-03-01T01:38:51;103370.44;;;-0.46;100.00
60373;BME280;46216;52.220;5.134;2023-03-01T01:41:17;103366.09;;;-0.46;100.00
60373;BME280;46216;52.220;5.134;2023-03-01T01:43:49;103369.53;;;-0.49;100.00
60373;BME280;46216;52.220;5.134;2023-03-01T01:46:36;103366.91;;;-0.49;100.00
60373;BME280;46216;52.220;5.134;2023-03-01T01:49:20;103364.25;;;-0.52;100.00
60373;BME280;46216;52.220;5.134;2023-03-01T01:51:50;103367.69;;;-0.56;100.00
60373;BME280;46216;52.220;5.134;2023-03-01T01:54:25;103360.72;;;-0.57;100.00
60373;BME280;46216;52.220;5.134;2023-03-01T01:56:58;103358.97;;;-0.58;100.00
60373;BME280;46216;52.220;5.134;2023-03-01T01:59:27;103359.84;;;-0.57;100.00
60373;BME280;46216;52.220;5.134;2023-03-01T02:01:54;103359.75;;;-0.62;100.00
60373;BME280;46216;52.220;5.134;2023-03-01T02:04:20;103362.38;;;-0.62;100.00
60373;BME280;46216;52.220;5.134;2023-03-01T02:06:53;103360.59;;;-0.64;100.00
60373;BME280;46216;52.220;5.134;2023-03-01T02:09:23;103355.31;;;-0.67;100.00
60373;BME280;46216;52.220;5.134;2023-03-01T02:11:50;103357.94;;;-0.67;100.00
60373;BME280;46216;52.220;5.134;2023-03-01T02:14:16;103362.25;;;-0.69;100.00
60373;BME280;46216;52.220;5.134;2023-03-01T02:16:42;103358.72;;;-0.73;100.00
60373;BME280;46216;52.220;5.134;2023-03-01T02:19:11;103352.56;;;-0.75;100.00
60373;BME280;46216;52.220;5.134;2023-03-01T02:21:58;103351.69;;;-0.76;100.00
60373;BME280;46216;52.220;5.134;2023-03-01T02:24:47;103349.06;;;-0.77;100.00
60373;BME280;46216;52.220;5.134;2023-03-01T02:27:18;103347.25;;;-0.81;100.00
60373;BME280;46216;52.220;5.134;2023-03-01T02:29:47;103345.53;;;-0.79;100.00
60373;BME280;46216;52.220;5.134;2023-03-01T02:32:13;103345.47;;;-0.82;100.00
60373;BME280;46216;52.220;5.134;2023-03-01T02:34:40;103355.06;;;-0.83;100.00
60373;BME280;46216;52.220;5.134;2023-03-01T02:37:12;103355.06;;;-0.84;100.00
60373;BME280;46216;52.220;5.134;2023-03-01T02:39:42;103346.28;;;-0.86;100.00
60373;BME280;46216;52.220;5.134;2023-03-01T02:42:13;103341.06;;;-0.88;100.00
60373;BME280;46216;52.220;5.134;2023-03-01T02:44:39;103336.66;;;-0.90;100.00
60373;BME280;46216;52.220;5.134;2023-03-01T02:47:05;103331.38;;;-0.93;100.00
60373;BME280;46216;52.220;5.134;2023-03-01T02:49:33;103326.13;;;-0.93;100.00
60373;BME280;46216;52.220;5.134;2023-03-01T02:52:16;103327.03;;;-0.91;100.00
60373;BME280;46216;52.220;5.134;2023-03-01T02:55:02;103325.25;;;-0.92;100.00
60373;BME280;46216;52.220;5.134;2023-03-01T02:57:31;103326.06;;;-0.97;100.00
60373;BME280;46216;52.220;5.134;2023-03-01T02:59:59;103326.06;;;-0.97;100.00
60373;BME280;46216;52.220;5.134;2023-03-01T03:02:32;103321.72;;;-0.96;100.00
60373;BME280;46216;52.220;5.134;2023-03-01T03:05:08;103326.94;;;-0.98;100.00
60373;BME280;46216;52.220;5.134;2023-03-01T03:07:36;103315.56;;;-1.00;100.00
60373;BME280;46216;52.220;5.134;2023-03-01T03:10:03;103322.53;;;-1.02;100.00
60373;BME280;46216;52.220;5.134;2023-03-01T03:12:29;103313.69;;;-1.07;100.00
60373;BME280;46216;52.220;5.134;2023-03-01T03:14:54;103320.69;;;-1.06;100.00
60373;BME280;46216;52.220;5.134;2023-03-01T03:17:19;103312.81;;;-1.07;100.00
60373;BME280;46216;52.220;5.134;2023-03-01T03:19:45;103311.06;;;-1.08;100.00
60373;BME280;46216;52.220;5.134;2023-03-01T03:22:11;103313.59;;;-1.13;100.00
60373;BME280;46216;52.220;5.134;2023-03-01T03:24:37;103308.38;;;-1.14;100.00
60373;BME280;46216;52.220;5.134;2023-03-01T03:27:07;103296.91;;;-1.21;100.00
60373;BME280;46216;52.220;5.134;2023-03-01T03:29:33;103300.41;;;-1.19;100.00
60373;BME280;46216;52.220;5.134;2023-03-01T03:31:59;103296.91;;;-1.21;100.00
60373;BME280;46216;52.220;5.134;2023-03-01T03:34:24;103287.22;;;-1.27;100.00
60373;BME280;46216;52.220;5.134;2023-03-01T03:36:53;103289.84;;;-1.28;100.00
60373;BME280;46216;52.220;5.134;2023-03-01T03:39:23;103288.03;;;-1.29;100.00
60373;BME280;46216;52.220;5.134;2023-03-01T03:41:48;103288.91;;;-1.30;100.00
60373;BME280;46216;52.220;5.134;2023-03-01T03:44:14;103290.66;;;-1.32;100.00
60373;BME280;46216;52.220;5.134;2023-03-01T03:46:39;103292.34;;;-1.33;100.00
60373;BME280;46216;52.220;5.134;2023-03-01T03:49:04;103285.34;;;-1.35;100.00
60373;BME280;46216;52.220;5.134;2023-03-01T03:51:30;103293.16;;;-1.37;100.00
60373;BME280;46216;52.220;5.134;2023-03-01T03:53:55;103287.88;;;-1.40;100.00
60373;BME280;46216;52.220;5.134;2023-03-01T03:56:20;103287.88;;;-1.41;100.00
60373;BME280;46216;52.220;5.134;2023-03-01T03:58:46;103279.09;;;-1.45;100.00
60373;BME280;46216;52.220;5.134;2023-03-01T04:01:11;103279.06;;;-1.47;100.00
60373;BME280;46216;52.220;5.134;2023-03-01T04:03:37;103286.94;;;-1.45;100.00
60373;BME280;46216;52.220;5.134;2023-03-01T04:06:03;103285.19;;;-1.45;100.00
60373;BME280;46216;52.220;5.134;2023-03-01T04:08:29;103286.91;;;-1.47;100.00
60373;BME280;46216;52.220;5.134;2023-03-01T04:11:02;103283.34;;;-1.52;100.00
60373;BME280;46216;52.220;5.134;2023-03-01T04:13:49;103283.34;;;-1.52;100.00
60373;BME280;46216;52.220;5.134;2023-03-01T04:16:14;103283.28;;;-1.53;100.00
60373;BME280;46216;52.220;5.134;2023-03-01T04:18:43;103278.88;;;-1.59;100.00
60373;BME280;46216;52.220;5.134;2023-03-01T04:21:08;103285.84;;;-1.59;100.00
60373;BME280;46216;52.220;5.134;2023-03-01T04:23:34;103287.53;;;-1.61;100.00
60373;BME280;46216;52.220;5.134;2023-03-01T04:26:00;103280.56;;;-1.62;100.00
60373;BME280;46216;52.220;5.134;2023-03-01T04:28:31;103281.31;;;-1.67;100.00
60373;BME280;46216;52.220;5.134;2023-03-01T04:31:05;103286.53;;;-1.68;100.00
60373;BME280;46216;52.220;5.134;2023-03-01T04:33:44;103283.81;;;-1.74;100.00
60373;BME280;46216;52.220;5.134;2023-03-01T04:36:11;103282.97;;;-1.73;100.00
60373;BME280;46216;52.220;5.134;2023-03-01T04:38:38;103282.03;;;-1.77;100.00
60373;BME280;46216;52.220;5.134;2023-03-01T04:41:05;103268.94;;;-1.78;100.00
60373;BME280;46216;52.220;5.134;2023-03-01T04:43:31;103270.63;;;-1.82;100.00
60373;BME280;46216;52.220;5.134;2023-03-01T04:46:04;103277.66;;;-1.78;100.00
60373;BME280;46216;52.220;5.134;2023-03-01T04:48:31;103276.72;;;-1.81;100.00
60373;BME280;46216;52.220;5.134;2023-03-01T04:50:58;103276.72;;;-1.81;100.00
60373;BME280;46216;52.220;5.134;2023-03-01T04:53:24;103271.47;;;-1.83;100.00
60373;BME280;46216;52.220;5.134;2023-03-01T04:55:49;103274.97;;;-1.81;100.00
60373;BME280;46216;52.220;5.134;2023-03-01T04:58:15;103271.50;;;-1.81;100.00
60373;BME280;46216;52.220;5.134;2023-03-01T05:00:40;103276.72;;;-1.81;100.00
60373;BME280;46216;52.220;5.134;2023-03-01T05:03:05;103256.66;;;-1.82;100.00
60373;BME280;46216;52.220;5.134;2023-03-01T05:05:35;103260.16;;;-1.83;100.00
60373;BME280;46216;52.220;5.134;2023-03-01T05:08:08;103253.13;;;-1.84;100.00
60373;BME280;46216;52.220;5.134;2023-03-01T05:10:35;103253.13;;;-1.84;100.00
60373;BME280;46216;52.220;5.134;2023-03-01T05:13:02;103249.66;;;-1.85;100.00
60373;BME280;46216;52.220;5.134;2023-03-01T05:15:29;103247.03;;;-1.86;100.00
60373;BME280;46216;52.220;5.134;2023-03-01T05:17:56;103248.72;;;-1.87;100.00
60373;BME280;46216;52.220;5.134;2023-03-01T05:20:27;103243.50;;;-1.87;100.00
60373;BME280;46216;52.220;5.134;2023-03-01T05:22:56;103247.84;;;-1.87;100.00
60373;BME280;46216;52.220;5.134;2023-03-01T05:25:21;103239.13;;;-1.88;100.00
60373;BME280;46216;52.220;5.134;2023-03-01T05:27:47;103233.03;;;-1.90;100.00
60373;BME280;46216;52.220;5.134;2023-03-01T05:30:12;103236.50;;;-1.89;100.00
60373;BME280;46216;52.220;5.134;2023-03-01T05:32:46;103226.00;;;-1.91;100.00
60373;BME280;46216;52.220;5.134;2023-03-01T05:35:12;103225.19;;;-1.87;100.00
60373;BME280;46216;52.220;5.134;2023-03-01T05:37:43;103218.22;;;-1.89;100.00
60373;BME280;46216;52.220;5.134;2023-03-01T05:40:10;103217.38;;;-1.87;100.00
60373;BME280;46216;52.220;5.134;2023-03-01T05:42:47;103219.16;;;-1.86;100.00
60373;BME280;46216;52.220;5.134;2023-03-01T05:45:14;103213.03;;;-1.86;100.00
60373;BME280;46216;52.220;5.134;2023-03-01T05:47:40;103206.03;;;-1.89;100.00
60373;BME280;46216;52.220;5.134;2023-03-01T05:50:13;103206.91;;;-1.87;100.00
60373;BME280;46216;52.220;5.134;2023-03-01T05:52:39;103210.38;;;-1.88;100.00
60373;BME280;46216;52.220;5.134;2023-03-01T05:55:05;103209.56;;;-1.85;100.00
60373;BME280;46216;52.220;5.134;2023-03-01T05:57:31;103201.72;;;-1.85;100.00
60373;BME280;46216;52.220;5.134;2023-03-01T05:59:56;103200.03;;;-1.83;100.00
60373;BME280;46216;52.220;5.134;2023-03-01T06:02:22;103199.16;;;-1.82;100.00
60373;BME280;46216;52.220;5.134;2023-03-01T06:04:47;103207.91;;;-1.80;100.00
60373;BME280;46216;52.220;5.134;2023-03-01T06:07:13;103202.44;;;-1.94;100.00
60373;BME280;46216;52.220;5.134;2023-03-01T06:09:38;103210.25;;;-1.96;100.00
60373;BME280;46216;52.220;5.134;2023-03-01T06:12:03;103206.72;;;-1.99;100.00
60373;BME280;46216;52.220;5.134;2023-03-01T06:14:30;103218.06;;;-1.97;100.00
60373;BME280;46216;52.220;5.134;2023-03-01T06:16:55;103200.66;;;-1.97;100.00
60373;BME280;46216;52.220;5.134;2023-03-01T06:19:20;103206.78;;;-1.96;100.00
60373;BME280;46216;52.220;5.134;2023-03-01T06:21:46;103205.03;;;-1.96;100.00
60373;BME280;46216;52.220;5.134;2023-03-01T06:24:11;103214.63;;;-1.96;100.00
60373;BME280;46216;52.220;5.134;2023-03-01T06:26:36;103207.59;;;-1.97;100.00
60373;BME280;46216;52.220;5.134;2023-03-01T06:29:02;103212.00;;;-1.96;100.00
60373;BME280;46216;52.220;5.134;2023-03-01T06:31:27;103211.19;;;-1.94;100.00
60373;BME280;46216;52.220;5.134;2023-03-01T06:33:52;103205.97;;;-1.94;100.00
60373;BME280;46216;52.220;5.134;2023-03-01T06:36:18;103208.56;;;-1.94;100.00
60373;BME280;46216;52.220;5.134;2023-03-01T06:38:46;103211.22;;;-1.91;100.00
60373;BME280;46216;52.220;5.134;2023-03-01T06:41:11;103215.56;;;-1.91;100.00
60373;BME280;46216;52.220;5.134;2023-03-01T06:43:37;103213.81;;;-1.92;100.00
60373;BME280;46216;52.220;5.134;2023-03-01T06:46:05;103211.19;;;-1.92;100.00
60373;BME280;46216;52.220;5.134;2023-03-01T06:48:32;103215.59;;;-1.89;100.00
60373;BME280;46216;52.220;5.134;2023-03-01T06:50:59;103216.50;;;-1.87;100.00
60373;BME280;46216;52.220;5.134;2023-03-01T06:53:26;103220.03;;;-1.85;100.00
60373;BME280;46216;52.220;5.134;2023-03-01T06:55:58;103210.38;;;-1.88;100.00
60373;BME280;46216;52.220;5.134;2023-03-01T06:58:26;103214.84;;;-1.82;100.00
60373;BME280;46216;52.220;5.134;2023-03-01T07:00:51;103214.84;;;-1.81;100.00
60373;BME280;46216;52.220;5.134;2023-03-01T07:03:17;103210.56;;;-1.77;100.00
60373;BME280;46216;52.220;5.134;2023-03-01T07:05:42;103220.19;;;-1.76;100.00
60373;BME280;46216;52.220;5.134;2023-03-01T07:08:07;103210.66;;;-1.73;100.00
60373;BME280;46216;52.220;5.134;2023-03-01T07:10:33;103216.81;;;-1.69;100.00
60373;BME280;46216;52.220;5.134;2023-03-01T07:12:59;103210.72;;;-1.68;100.00
60373;BME280;46216;52.220;5.134;2023-03-01T07:15:26;103215.09;;;-1.67;100.00
60373;BME280;46216;52.220;5.134;2023-03-01T07:17:51;103216.88;;;-1.64;100.00
60373;BME280;46216;52.220;5.134;2023-03-01T07:20:20;103216.06;;;-1.62;100.00
60373;BME280;46216;52.220;5.134;2023-03-01T07:22:53;103223.03;;;-1.62;100.00
60373;BME280;46216;52.220;5.134;2023-03-01T07:25:19;103224.88;;;-1.55;100.00
60373;BME280;46216;52.220;5.134;2023-03-01T07:27:49;103225.81;;;-1.52;100.00
60373;BME280;46216;52.220;5.134;2023-03-01T07:30:15;103231.13;;;-1.46;100.00
60373;BME280;46216;52.220;5.134;2023-03-01T07:32:40;103226.84;;;-1.40;100.00
60373;BME280;46216;52.220;5.134;2023-03-01T07:35:06;103229.56;;;-1.33;100.00
60373;BME280;46216;52.220;5.134;2023-03-01T07:37:31;103230.53;;;-1.28;100.00
60373;BME280;46216;52.220;5.134;2023-03-01T07:39:57;103236.75;;;-1.21;100.00
60373;BME280;46216;52.220;5.134;2023-03-01T07:42:22;103228.13;;;-1.14;100.00
60373;BME280;46216;52.220;5.134;2023-03-01T07:44:48;103228.25;;;-1.03;100.00
60373;BME280;46216;52.220;5.134;2023-03-01T07:47:13;103224.88;;;-0.98;100.00
60373;BME280;46216;52.220;5.134;2023-03-01T07:49:39;103228.50;;;-0.86;100.00
60373;BME280;46216;52.220;5.134;2023-03-01T07:52:04;103225.97;;;-0.79;100.00
60373;BME280;46216;52.220;5.134;2023-03-01T07:54:30;103234.88;;;-0.66;100.00
60373;BME280;46216;52.220;5.134;2023-03-01T07:56:56;103233.25;;;-0.58;100.00
60373;BME280;46216;52.220;5.134;2023-03-01T07:59:21;103229.88;;;-0.47;100.00
60373;BME280;46216;52.220;5.134;2023-03-01T08:01:48;103231.72;;;-0.36;100.00
60373;BME280;46216;52.220;5.134;2023-03-01T08:04:15;103223.97;;;-0.25;100.00
60373;BME280;46216;52.220;5.134;2023-03-01T08:06:40;103224.97;;;-0.14;100.00
60373;BME280;46216;52.220;5.134;2023-03-01T08:09:05;103227.75;;;0.02;100.00
60373;BME280;46216;52.220;5.134;2023-03-01T08:11:31;103223.44;;;0.10;100.00
60373;BME280;46216;52.220;5.134;2023-03-01T08:13:57;103234.09;;;0.25;100.00
60373;BME280;46216;52.220;5.134;2023-03-01T08:16:23;103230.66;;;0.37;100.00
60373;BME280;46216;52.220;5.134;2023-03-01T08:18:48;103229.91;;;0.49;100.00
60373;BME280;46216;52.220;5.134;2023-03-01T08:21:16;103237.00;;;0.62;100.00
60373;BME280;46216;52.220;5.134;2023-03-01T08:23:42;103231.81;;;0.71;100.00
60373;BME280;46216;52.220;5.134;2023-03-01T08:26:17;103230.13;;;0.81;100.00
60373;BME280;46216;52.220;5.134;2023-03-01T08:28:44;103224.97;;;0.93;100.00
60373;BME280;46216;52.220;5.134;2023-03-01T08:31:20;103228.50;;;1.04;100.00
60373;BME280;46216;52.220;5.134;2023-03-01T08:33:47;103221.56;;;1.15;100.00
60373;BME280;46216;52.220;5.134;2023-03-01T08:36:16;103210.25;;;1.27;100.00
60373;BME280;46216;52.220;5.134;2023-03-01T08:38:42;103208.53;;;1.41;100.00
60373;BME280;46216;52.220;5.134;2023-03-01T08:41:07;103208.56;;;1.55;100.00
60373;BME280;46216;52.220;5.134;2023-03-01T08:43:32;103206.88;;;1.67;100.00
60373;BME280;46216;52.220;5.134;2023-03-01T08:45:58;103199.00;;;1.85;100.00
60373;BME280;46216;52.220;5.134;2023-03-01T08:48:23;103198.16;;;2.01;100.00
60373;BME280;46216;52.220;5.134;2023-03-01T08:50:48;103198.16;;;2.13;100.00
60373;BME280;46216;52.220;5.134;2023-03-01T08:53:14;103187.66;;;2.26;100.00
60373;BME280;46216;52.220;5.134;2023-03-01T08:55:39;103190.28;;;2.38;100.00
60373;BME280;46216;52.220;5.134;2023-03-01T08:58:04;103191.13;;;2.48;100.00
60373;BME280;46216;52.220;5.134;2023-03-01T09:00:30;103176.22;;;2.62;100.00
60373;BME280;46216;52.220;5.134;2023-03-01T09:02:55;103172.66;;;2.77;100.00
60373;BME280;46216;52.220;5.134;2023-03-01T09:05:20;103183.16;;;2.91;100.00
60373;BME280;46216;52.220;5.134;2023-03-01T09:07:46;103170.78;;;3.05;100.00
60373;BME280;46216;52.220;5.134;2023-03-01T09:10:11;103172.53;;;3.12;100.00
60373;BME280;46216;52.220;5.134;2023-03-01T09:12:36;103169.84;;;3.21;100.00
60373;BME280;46216;52.220;5.134;2023-03-01T09:15:02;103159.28;;;3.30;100.00
60373;BME280;46216;52.220;5.134;2023-03-01T09:17:27;103155.69;;;3.39;100.00
60373;BME280;46216;52.220;5.134;2023-03-01T09:19:53;103138.94;;;3.54;100.00
60373;BME280;46216;52.220;5.134;2023-03-01T09:22:18;103123.88;;;3.68;100.00
60373;BME280;46216;52.220;5.134;2023-03-01T09:24:43;103123.03;;;3.68;100.00
60373;BME280;46216;52.220;5.134;2023-03-01T09:27:09;103126.50;;;3.74;100.00
60373;BME280;46216;52.220;5.134;2023-03-01T09:29:36;103127.34;;;3.75;100.00
60373;BME280;46216;52.220;5.134;2023-03-01T09:32:02;103119.38;;;3.83;100.00
60373;BME280;46216;52.220;5.134;2023-03-01T09:34:27;103121.06;;;3.93;100.00
60373;BME280;46216;52.220;5.134;2023-03-01T09:36:52;103114.88;;;3.98;100.00
60373;BME280;46216;52.220;5.134;2023-03-01T09:39:18;103120.91;;;4.11;100.00
60373;BME280;46216;52.220;5.134;2023-03-01T09:44:32;103112.75;;;4.36;100.00
60373;BME280;46216;52.220;5.134;2023-03-01T09:47:01;103113.41;;;4.56;100.00
60373;BME280;46216;52.220;5.134;2023-03-01T09:49:30;103109.72;;;4.72;100.00
60373;BME280;46216;52.220;5.134;2023-03-01T09:52:02;103108.50;;;4.98;100.00
60373;BME280;46216;52.220;5.134;2023-03-01T09:54:29;103110.91;;;5.16;100.00
60373;BME280;46216;52.220;5.134;2023-03-01T09:57:07;103107.06;;;5.39;100.00
60373;BME280;46216;52.220;5.134;2023-03-01T10:02:43;103098.50;;;5.79;100.00
60373;BME280;46216;52.220;5.134;2023-03-01T10:10:37;103093.19;;;6.31;100.00
60373;BME280;46216;52.220;5.134;2023-03-01T10:13:13;103091.31;;;6.38;100.00
60373;BME280;46216;52.220;5.134;2023-03-01T10:15:47;103091.03;;;6.53;100.00
60373;BME280;46216;52.220;5.134;2023-03-01T10:18:25;103078.38;;;6.68;100.00
60373;BME280;46216;52.220;5.134;2023-03-01T10:20:58;103080.72;;;6.83;100.00
60373;BME280;46216;52.220;5.134;2023-03-01T10:23:26;103080.66;;;6.84;100.00
60373;BME280;46216;52.220;5.134;2023-03-01T10:26:16;103075.06;;;7.00;100.00
60373;BME280;46216;52.220;5.134;2023-03-01T10:29:02;103065.16;;;7.06;100.00
60373;BME280;46216;52.220;5.134;2023-03-01T10:31:37;103066.78;;;7.14;100.00
60373;BME280;46216;52.220;5.134;2023-03-01T10:34:19;103062.03;;;7.28;100.00
60373;BME280;46216;52.220;5.134;2023-03-01T10:36:50;103059.88;;;7.44;100.00
60373;BME280;46216;52.220;5.134;2023-03-01T10:39:21;103056.00;;;7.58;100.00
60373;BME280;46216;52.220;5.134;2023-03-01T10:42:19;103044.81;;;7.81;100.00
60373;BME280;46216;52.220;5.134;2023-03-01T10:44:48;103055.16;;;7.91;100.00
60373;BME280;46216;52.220;5.134;2023-03-01T10:47:20;103057.88;;;7.89;100.00
60373;BME280;46216;52.220;5.134;2023-03-01T10:49:52;103044.38;;;7.97;100.00
60373;BME280;46216;52.220;5.134;2023-03-01T10:52:21;103046.13;;;7.98;100.00
60373;BME280;46216;52.220;5.134;2023-03-01T10:54:58;103039.72;;;8.06;100.00
60373;BME280;46216;52.220;5.134;2023-03-01T10:57:29;103037.44;;;7.91;100.00
60373;BME280;46216;52.220;5.134;2023-03-01T11:00:21;103031.19;;;7.94;100.00
60373;BME280;46216;52.220;5.134;2023-03-01T11:03:04;103033.19;;;8.18;100.00
60373;BME280;46216;52.220;5.134;2023-03-01T11:05:34;103017.94;;;8.25;100.00
60373;BME280;46216;52.220;5.134;2023-03-01T11:08:01;103010.13;;;8.20;100.00
60373;BME280;46216;52.220;5.134;2023-03-01T11:10:35;103012.47;;;8.31;100.00
60373;BME280;46216;52.220;5.134;2023-03-01T11:15:32;102998.03;;;8.41;100.00
60373;BME280;46216;52.220;5.134;2023-03-01T11:17:57;102999.78;;;8.72;100.00
60373;BME280;46216;52.220;5.134;2023-03-01T11:20:31;103000.53;;;8.77;100.00
60373;BME280;46216;52.220;5.134;2023-03-01T11:23:06;102993.34;;;8.79;100.00
60373;BME280;46216;52.220;5.134;2023-03-01T11:25:42;102990.69;;;8.79;100.00
60373;BME280;46216;52.220;5.134;2023-03-01T11:28:14;102985.25;;;8.84;100.00
60373;BME280;46216;52.220;5.134;2023-03-01T11:30:49;102987.41;;;8.41;99.71
60373;BME280;46216;52.220;5.134;2023-03-01T11:35:50;102978.97;;;9.14;100.00
60373;BME280;46216;52.220;5.134;2023-03-01T11:38:22;102982.78;;;9.06;96.08
60373;BME280;46216;52.220;5.134;2023-03-01T11:41:08;102978.38;;;9.05;89.42
60373;BME280;46216;52.220;5.134;2023-03-01T11:49:01;102956.13;;;9.34;95.06
60373;BME280;46216;52.220;5.134;2023-03-01T11:54:18;102960.88;;;9.51;90.50
60373;BME280;46216;52.220;5.134;2023-03-01T11:56:50;102954.00;;;9.70;94.17
60373;BME280;46216;52.220;5.134;2023-03-01T12:02:21;102965.56;;;9.17;84.28
60373;BME280;46216;52.220;5.134;2023-03-01T12:07:29;102959.44;;;9.40;85.26
60373;BME280;46216;52.220;5.134;2023-03-01T12:10:20;102951.25;;;9.46;86.11
60373;BME280;46216;52.220;5.134;2023-03-01T12:12:56;102953.13;;;9.69;88.22
60373;BME280;46216;52.220;5.134;2023-03-01T12:15:34;102951.72;;;9.84;86.01
60373;BME280;46216;52.220;5.134;2023-03-01T12:18:48;102942.88;;;9.59;82.35
60373;BME280;46216;52.220;5.134;2023-03-01T12:24:10;102926.78;;;9.87;87.91
60373;BME280;46216;52.220;5.134;2023-03-01T12:29:42;102929.81;;;9.76;89.54
60373;BME280;46216;52.220;5.134;2023-03-01T12:32:21;102924.22;;;9.84;86.50
60373;BME280;46216;52.220;5.134;2023-03-01T12:38:02;102925.47;;;9.99;84.07
60373;BME280;46216;52.220;5.134;2023-03-01T12:40:44;102922.25;;;10.37;87.90
60373;BME280;46216;52.220;5.134;2023-03-01T12:46:21;102921.78;;;9.78;76.78
60373;BME280;46216;52.220;5.134;2023-03-01T12:51:33;102906.88;;;9.97;79.62
60373;BME280;46216;52.220;5.134;2023-03-01T12:54:07;102914.75;;;10.00;80.09
60373;BME280;46216;52.220;5.134;2023-03-01T12:56:37;102910.28;;;10.01;82.53
60373;BME280;46216;52.220;5.134;2023-03-01T13:01:42;102916.13;;;9.62;79.33
60373;BME280;46216;52.220;5.134;2023-03-01T13:04:18;102902.09;;;9.57;80.58
60373;BME280;46216;52.220;5.134;2023-03-01T13:07:11;102903.19;;;9.26;79.51
60373;BME280;46216;52.220;5.134;2023-03-01T13:10:01;102892.44;;;9.54;83.02
60373;BME280;46216;52.220;5.134;2023-03-01T13:15:24;102891.44;;;8.80;79.94
60373;BME280;46216;52.220;5.134;2023-03-01T13:20:18;102878.56;;;9.19;83.96
60373;BME280;46216;52.220;5.134;2023-03-01T13:22:46;102869.25;;;9.06;84.05
60373;BME280;46216;52.220;5.134;2023-03-01T13:25:17;102870.25;;;9.04;83.99
60373;BME280;46216;52.220;5.134;2023-03-01T13:27:44;102868.19;;;9.12;84.89
60373;BME280;46216;52.220;5.134;2023-03-01T13:35:53;102852.09;;;8.63;85.27
60373;BME280;46216;52.220;5.134;2023-03-01T13:41:31;102845.78;;;8.66;84.83
60373;BME280;46216;52.220;5.134;2023-03-01T13:47:13;102850.97;;;8.70;84.78
60373;BME280;46216;52.220;5.134;2023-03-01T13:49:53;102832.25;;;8.45;83.82
60373;BME280;46216;52.220;5.134;2023-03-01T13:52:38;102817.47;;;8.65;85.96
60373;BME280;46216;52.220;5.134;2023-03-01T13:55:16;102823.44;;;8.73;86.10
60373;BME280;46216;52.220;5.134;2023-03-01T13:57:46;102816.03;;;8.81;87.05
60373;BME280;46216;52.220;5.134;2023-03-01T14:00:34;102816.16;;;8.78;86.04